Archival Weather

Chicago O'Hare International

Chicago, Illinois (KORD)

Report from: Friday, September 23, 2022 1:51 PM CDT
Current time: Sunday, December 4, 2022 5:03 AM CST

Current weather
Weather history
Weather forecast

Temperature16.1°C (61.0°F)
Dew point3.9°C (39.0°F)
Winds 8 kts (4.1 m/s, 9.2 mph) South (180°)
Visibility10 mi. (16.1 km)
Clouds Few clouds 4,500 ft. (1,372 m)
Scattered clouds 17,000 ft. (5,182 m)
Ceiling: Broken clouds 21,000 ft. (6,401 m)
Overcast 25,000 ft. (7,620 m)
Altimeter30.19 in.Hg (1022 mB)
Relative humidity44 %
Density altitude-56 ft. (-17 m)
Sea-level pressure102.3 kPa (1023 mB, 30.19 in.Hg)
Remarks Automated weather observing station with precipitation discriminator
Flight conditions Visual Meteorological Conditions
Raw dataKORD 231851Z 18008KT 10SM FEW045 SCT170 BKN210 OVC250 16/04 A3019 RMK AO2 SLP225 T01610039
An error has occurred. This application may no longer respond until reloaded. Reload 🗙